sensor_id;sensor_type;location;lat;lon;timestamp;temperature;humidity
12885;DHT22;6510;51.362;7.370;2023-02-01T00:00:00;4.60;99.90
12885;DHT22;6510;51.362;7.370;2023-02-01T00:02:26;4.60;99.90
12885;DHT22;6510;51.362;7.370;2023-02-01T00:04:54;4.60;99.90
12885;DHT22;6510;51.362;7.370;2023-02-01T00:07:20;4.70;99.90
12885;DHT22;6510;51.362;7.370;2023-02-01T00:09:46;4.60;99.90
12885;DHT22;6510;51.362;7.370;2023-02-01T00:12:11;4.60;99.90
12885;DHT22;6510;51.362;7.370;2023-02-01T00:14:37;4.60;99.90
12885;DHT22;6510;51.362;7.370;2023-02-01T00:17:08;4.60;99.90
12885;DHT22;6510;51.362;7.370;2023-02-01T00:19:34;4.50;99.90
12885;DHT22;6510;51.362;7.370;2023-02-01T00:22:00;4.60;99.90
12885;DHT22;6510;51.362;7.370;2023-02-01T00:24:26;4.60;99.90
12885;DHT22;6510;51.362;7.370;2023-02-01T00:26:51;4.50;99.90
12885;DHT22;6510;51.362;7.370;2023-02-01T00:29:19;4.60;99.90
12885;DHT22;6510;51.362;7.370;2023-02-01T00:31:46;4.40;99.90
12885;DHT22;6510;51.362;7.370;2023-02-01T00:34:13;4.40;99.90
12885;DHT22;6510;51.362;7.370;2023-02-01T00:36:39;4.40;99.90
12885;DHT22;6510;51.362;7.370;2023-02-01T00:39:05;4.40;99.90
12885;DHT22;6510;51.362;7.370;2023-02-01T00:41:31;4.40;99.90
12885;DHT22;6510;51.362;7.370;2023-02-01T00:43:59;4.40;99.90
12885;DHT22;6510;51.362;7.370;2023-02-01T00:46:25;4.40;99.90
12885;DHT22;6510;51.362;7.370;2023-02-01T00:48:50;4.40;99.90
12885;DHT22;6510;51.362;7.370;2023-02-01T00:51:19;4.40;99.90
12885;DHT22;6510;51.362;7.370;2023-02-01T00:53:45;4.40;99.90
12885;DHT22;6510;51.362;7.370;2023-02-01T00:56:12;4.40;99.90
12885;DHT22;6510;51.362;7.370;2023-02-01T00:58:37;4.40;99.90
12885;DHT22;6510;51.362;7.370;2023-02-01T01:01:10;4.40;99.90
12885;DHT22;6510;51.362;7.370;2023-02-01T01:03:41;4.40;99.90
12885;DHT22;6510;51.362;7.370;2023-02-01T01:06:09;4.40;99.90
12885;DHT22;6510;51.362;7.370;2023-02-01T01:08:36;4.50;99.90
12885;DHT22;6510;51.362;7.370;2023-02-01T01:11:14;4.40;99.90
12885;DHT22;6510;51.362;7.370;2023-02-01T01:13:40;4.40;99.90
12885;DHT22;6510;51.362;7.370;2023-02-01T01:16:07;4.40;99.90
12885;DHT22;6510;51.362;7.370;2023-02-01T01:18:34;4.40;99.90
12885;DHT22;6510;51.362;7.370;2023-02-01T01:21:00;4.50;99.90
12885;DHT22;6510;51.362;7.370;2023-02-01T01:23:27;4.50;99.90
12885;DHT22;6510;51.362;7.370;2023-02-01T01:25:53;4.50;99.90
12885;DHT22;6510;51.362;7.370;2023-02-01T01:28:18;4.50;99.90
12885;DHT22;6510;51.362;7.370;2023-02-01T01:30:44;4.40;99.90
12885;DHT22;6510;51.362;7.370;2023-02-01T01:33:10;4.40;99.90
12885;DHT22;6510;51.362;7.370;2023-02-01T01:35:36;4.50;99.90
12885;DHT22;6510;51.362;7.370;2023-02-01T01:38:02;4.40;99.90
12885;DHT22;6510;51.362;7.370;2023-02-01T01:40:29;4.50;99.90
12885;DHT22;6510;51.362;7.370;2023-02-01T01:42:56;4.60;99.90
12885;DHT22;6510;51.362;7.370;2023-02-01T01:47:53;4.50;99.90
12885;DHT22;6510;51.362;7.370;2023-02-01T01:50:24;4.50;99.90
12885;DHT22;6510;51.362;7.370;2023-02-01T01:52:53;4.50;99.90
12885;DHT22;6510;51.362;7.370;2023-02-01T01:55:21;4.60;99.90
12885;DHT22;6510;51.362;7.370;2023-02-01T01:58:02;4.50;99.90
12885;DHT22;6510;51.362;7.370;2023-02-01T02:00:28;4.50;99.90
12885;DHT22;6510;51.362;7.370;2023-02-01T02:03:18;4.40;99.90
12885;DHT22;6510;51.362;7.370;2023-02-01T02:05:45;4.40;99.90
12885;DHT22;6510;51.362;7.370;2023-02-01T02:08:12;4.50;99.90
12885;DHT22;6510;51.362;7.370;2023-02-01T02:10:37;4.40;99.90
12885;DHT22;6510;51.362;7.370;2023-02-01T02:13:22;4.40;99.90
12885;DHT22;6510;51.362;7.370;2023-02-01T02:18:44;4.40;99.90
12885;DHT22;6510;51.362;7.370;2023-02-01T02:24:54;4.40;99.90
12885;DHT22;6510;51.362;7.370;2023-02-01T02:32:44;4.20;99.90
12885;DHT22;6510;51.362;7.370;2023-02-01T02:35:33;4.20;99.90
12885;DHT22;6510;51.362;7.370;2023-02-01T02:38:15;4.30;99.90
12885;DHT22;6510;51.362;7.370;2023-02-01T02:43:30;4.30;99.90
12885;DHT22;6510;51.362;7.370;2023-02-01T02:46:27;4.20;99.90
12885;DHT22;6510;51.362;7.370;2023-02-01T02:49:36;4.30;99.90
12885;DHT22;6510;51.362;7.370;2023-02-01T02:52:15;4.30;99.90
12885;DHT22;6510;51.362;7.370;2023-02-01T02:55:03;4.30;99.90
12885;DHT22;6510;51.362;7.370;2023-02-01T02:57:39;4.30;99.90
12885;DHT22;6510;51.362;7.370;2023-02-01T03:00:29;4.30;99.90
12885;DHT22;6510;51.362;7.370;2023-02-01T03:03:14;4.30;99.90
12885;DHT22;6510;51.362;7.370;2023-02-01T03:05:59;4.30;99.90
12885;DHT22;6510;51.362;7.370;2023-02-01T03:08:27;4.30;99.90
12885;DHT22;6510;51.362;7.370;2023-02-01T03:11:00;4.30;99.90
12885;DHT22;6510;51.362;7.370;2023-02-01T03:16:20;4.30;99.90
12885;DHT22;6510;51.362;7.370;2023-02-01T03:24:03;4.30;99.90
12885;DHT22;6510;51.362;7.370;2023-02-01T03:26:31;4.30;99.90
12885;DHT22;6510;51.362;7.370;2023-02-01T03:29:05;4.30;99.90
12885;DHT22;6510;51.362;7.370;2023-02-01T03:31:33;4.20;99.90
12885;DHT22;6510;51.362;7.370;2023-02-01T03:33:59;4.10;99.90
12885;DHT22;6510;51.362;7.370;2023-02-01T03:36:31;4.00;99.90
12885;DHT22;6510;51.362;7.370;2023-02-01T03:39:24;3.90;99.90
12885;DHT22;6510;51.362;7.370;2023-02-01T03:41:53;4.00;99.90
12885;DHT22;6510;51.362;7.370;2023-02-01T03:44:26;4.10;99.90
12885;DHT22;6510;51.362;7.370;2023-02-01T03:47:12;4.20;99.90
12885;DHT22;6510;51.362;7.370;2023-02-01T03:49:48;4.20;99.90
12885;DHT22;6510;51.362;7.370;2023-02-01T03:52:22;4.20;99.90
12885;DHT22;6510;51.362;7.370;2023-02-01T03:54:51;4.30;99.90
12885;DHT22;6510;51.362;7.370;2023-02-01T03:57:29;4.20;99.90
12885;DHT22;6510;51.362;7.370;2023-02-01T04:00:05;4.30;99.90
12885;DHT22;6510;51.362;7.370;2023-02-01T04:02:33;4.30;99.90
12885;DHT22;6510;51.362;7.370;2023-02-01T04:04:58;4.30;99.90
12885;DHT22;6510;51.362;7.370;2023-02-01T04:07:24;4.40;99.90
12885;DHT22;6510;51.362;7.370;2023-02-01T04:09:49;4.30;99.90
12885;DHT22;6510;51.362;7.370;2023-02-01T04:12:15;4.30;99.90
12885;DHT22;6510;51.362;7.370;2023-02-01T04:14:40;4.20;99.90
12885;DHT22;6510;51.362;7.370;2023-02-01T04:17:06;4.20;99.90
12885;DHT22;6510;51.362;7.370;2023-02-01T04:19:32;4.20;99.90
12885;DHT22;6510;51.362;7.370;2023-02-01T04:21:57;4.10;99.90
12885;DHT22;6510;51.362;7.370;2023-02-01T04:24:23;4.20;99.90
12885;DHT22;6510;51.362;7.370;2023-02-01T04:26:48;4.30;99.90
12885;DHT22;6510;51.362;7.370;2023-02-01T04:29:14;4.30;99.90
12885;DHT22;6510;51.362;7.370;2023-02-01T04:31:39;4.30;99.90
12885;DHT22;6510;51.362;7.370;2023-02-01T04:34:05;4.30;99.90
12885;DHT22;6510;51.362;7.370;2023-02-01T04:36:31;4.40;99.90
12885;DHT22;6510;51.362;7.370;2023-02-01T04:38:56;4.30;99.90
12885;DHT22;6510;51.362;7.370;2023-02-01T04:41:22;4.30;99.90
12885;DHT22;6510;51.362;7.370;2023-02-01T04:43:49;4.30;99.90
12885;DHT22;6510;51.362;7.370;2023-02-01T04:46:15;4.30;99.90
12885;DHT22;6510;51.362;7.370;2023-02-01T04:48:41;4.30;99.90
12885;DHT22;6510;51.362;7.370;2023-02-01T04:51:07;4.30;99.90
12885;DHT22;6510;51.362;7.370;2023-02-01T04:53:32;4.30;99.90
12885;DHT22;6510;51.362;7.370;2023-02-01T04:55:58;4.30;99.90
12885;DHT22;6510;51.362;7.370;2023-02-01T04:58:24;4.30;99.90
12885;DHT22;6510;51.362;7.370;2023-02-01T05:00:49;4.40;99.90
12885;DHT22;6510;51.362;7.370;2023-02-01T05:03:16;4.30;99.90
12885;DHT22;6510;51.362;7.370;2023-02-01T05:05:42;4.30;99.90
12885;DHT22;6510;51.362;7.370;2023-02-01T05:08:08;4.40;99.90
12885;DHT22;6510;51.362;7.370;2023-02-01T05:10:33;4.40;99.90
12885;DHT22;6510;51.362;7.370;2023-02-01T05:12:59;4.40;99.90
12885;DHT22;6510;51.362;7.370;2023-02-01T05:15:43;4.40;99.90
12885;DHT22;6510;51.362;7.370;2023-02-01T05:18:08;4.30;99.90
12885;DHT22;6510;51.362;7.370;2023-02-01T05:20:34;4.30;99.90
12885;DHT22;6510;51.362;7.370;2023-02-01T05:23:00;4.30;99.90
12885;DHT22;6510;51.362;7.370;2023-02-01T05:25:25;4.30;99.90
12885;DHT22;6510;51.362;7.370;2023-02-01T05:27:51;4.30;99.90
12885;DHT22;6510;51.362;7.370;2023-02-01T05:30:18;4.30;99.90
12885;DHT22;6510;51.362;7.370;2023-02-01T05:32:44;4.30;99.90
12885;DHT22;6510;51.362;7.370;2023-02-01T05:35:09;4.30;99.90
12885;DHT22;6510;51.362;7.370;2023-02-01T05:37:35;4.30;99.90
12885;DHT22;6510;51.362;7.370;2023-02-01T05:40:01;4.20;99.90
12885;DHT22;6510;51.362;7.370;2023-02-01T05:42:26;4.20;99.90
12885;DHT22;6510;51.362;7.370;2023-02-01T05:44:52;4.30;99.90
12885;DHT22;6510;51.362;7.370;2023-02-01T05:47:17;4.30;99.90
12885;DHT22;6510;51.362;7.370;2023-02-01T05:49:43;4.30;99.90
12885;DHT22;6510;51.362;7.370;2023-02-01T05:52:09;4.30;99.90
12885;DHT22;6510;51.362;7.370;2023-02-01T05:54:34;4.30;99.90
12885;DHT22;6510;51.362;7.370;2023-02-01T05:57:00;4.30;99.90
12885;DHT22;6510;51.362;7.370;2023-02-01T05:59:25;4.30;99.90
12885;DHT22;6510;51.362;7.370;2023-02-01T06:01:51;4.30;99.90
12885;DHT22;6510;51.362;7.370;2023-02-01T06:04:17;4.20;99.90
12885;DHT22;6510;51.362;7.370;2023-02-01T06:06:43;4.20;99.90
12885;DHT22;6510;51.362;7.370;2023-02-01T06:09:08;4.30;99.90
12885;DHT22;6510;51.362;7.370;2023-02-01T06:11:34;4.20;99.90
12885;DHT22;6510;51.362;7.370;2023-02-01T06:13:59;4.00;99.90
12885;DHT22;6510;51.362;7.370;2023-02-01T06:16:25;4.00;99.90
12885;DHT22;6510;51.362;7.370;2023-02-01T06:18:51;3.90;99.90
12885;DHT22;6510;51.362;7.370;2023-02-01T06:21:17;3.90;99.90
12885;DHT22;6510;51.362;7.370;2023-02-01T06:23:50;3.90;99.90
12885;DHT22;6510;51.362;7.370;2023-02-01T06:26:16;3.90;99.90
12885;DHT22;6510;51.362;7.370;2023-02-01T06:28:43;4.10;99.90
12885;DHT22;6510;51.362;7.370;2023-02-01T06:31:09;4.00;99.90
12885;DHT22;6510;51.362;7.370;2023-02-01T06:33:35;4.10;99.90
12885;DHT22;6510;51.362;7.370;2023-02-01T06:36:03;4.10;99.90
12885;DHT22;6510;51.362;7.370;2023-02-01T06:38:30;4.10;99.90
12885;DHT22;6510;51.362;7.370;2023-02-01T06:40:57;4.20;99.90
12885;DHT22;6510;51.362;7.370;2023-02-01T06:43:24;4.20;99.90
12885;DHT22;6510;51.362;7.370;2023-02-01T06:45:50;4.20;99.90
12885;DHT22;6510;51.362;7.370;2023-02-01T06:48:16;4.20;99.90
12885;DHT22;6510;51.362;7.370;2023-02-01T06:50:42;4.20;99.90
12885;DHT22;6510;51.362;7.370;2023-02-01T06:53:08;4.20;99.90
12885;DHT22;6510;51.362;7.370;2023-02-01T06:55:34;4.10;99.90
12885;DHT22;6510;51.362;7.370;2023-02-01T06:57:59;4.20;99.90
12885;DHT22;6510;51.362;7.370;2023-02-01T07:00:29;4.20;99.90
12885;DHT22;6510;51.362;7.370;2023-02-01T07:02:54;4.20;99.90
12885;DHT22;6510;51.362;7.370;2023-02-01T07:05:21;4.20;99.90
12885;DHT22;6510;51.362;7.370;2023-02-01T07:07:46;4.20;99.90
12885;DHT22;6510;51.362;7.370;2023-02-01T07:10:12;4.20;99.90
12885;DHT22;6510;51.362;7.370;2023-02-01T07:12:38;4.20;99.90
12885;DHT22;6510;51.362;7.370;2023-02-01T07:15:04;4.20;99.90
12885;DHT22;6510;51.362;7.370;2023-02-01T07:17:30;4.20;99.90
12885;DHT22;6510;51.362;7.370;2023-02-01T07:19:56;4.20;99.90
12885;DHT22;6510;51.362;7.370;2023-02-01T07:22:24;4.20;99.90
12885;DHT22;6510;51.362;7.370;2023-02-01T07:24:49;4.20;99.90
12885;DHT22;6510;51.362;7.370;2023-02-01T07:27:15;4.20;99.90
12885;DHT22;6510;51.362;7.370;2023-02-01T07:29:40;4.20;99.90
12885;DHT22;6510;51.362;7.370;2023-02-01T07:32:06;4.20;99.90
12885;DHT22;6510;51.362;7.370;2023-02-01T07:34:32;4.20;99.90
12885;DHT22;6510;51.362;7.370;2023-02-01T07:36:58;4.20;99.90
12885;DHT22;6510;51.362;7.370;2023-02-01T07:39:23;4.20;99.90
12885;DHT22;6510;51.362;7.370;2023-02-01T07:41:49;4.20;99.90
12885;DHT22;6510;51.362;7.370;2023-02-01T07:44:15;4.20;99.90
12885;DHT22;6510;51.362;7.370;2023-02-01T07:46:48;4.20;99.90
12885;DHT22;6510;51.362;7.370;2023-02-01T07:49:13;4.30;99.90
12885;DHT22;6510;51.362;7.370;2023-02-01T07:51:39;4.20;99.90
12885;DHT22;6510;51.362;7.370;2023-02-01T07:54:05;4.20;99.90
12885;DHT22;6510;51.362;7.370;2023-02-01T07:56:30;4.20;99.90
12885;DHT22;6510;51.362;7.370;2023-02-01T07:58:56;4.30;99.90
12885;DHT22;6510;51.362;7.370;2023-02-01T08:01:24;4.30;99.90
12885;DHT22;6510;51.362;7.370;2023-02-01T08:03:56;4.20;99.90
12885;DHT22;6510;51.362;7.370;2023-02-01T08:06:23;4.30;99.90
12885;DHT22;6510;51.362;7.370;2023-02-01T08:08:49;4.30;99.90
12885;DHT22;6510;51.362;7.370;2023-02-01T08:11:16;4.30;99.90
12885;DHT22;6510;51.362;7.370;2023-02-01T08:13:42;4.30;99.90
12885;DHT22;6510;51.362;7.370;2023-02-01T08:16:09;4.30;99.90
12885;DHT22;6510;51.362;7.370;2023-02-01T08:18:36;4.30;99.90
12885;DHT22;6510;51.362;7.370;2023-02-01T08:21:09;4.40;99.90
12885;DHT22;6510;51.362;7.370;2023-02-01T08:23:36;4.40;99.90
12885;DHT22;6510;51.362;7.370;2023-02-01T08:28:33;4.40;99.90
12885;DHT22;6510;51.362;7.370;2023-02-01T08:30:59;4.40;99.90
12885;DHT22;6510;51.362;7.370;2023-02-01T08:33:24;4.50;99.90
12885;DHT22;6510;51.362;7.370;2023-02-01T08:35:50;4.50;99.90
12885;DHT22;6510;51.362;7.370;2023-02-01T08:38:16;4.50;99.90
12885;DHT22;6510;51.362;7.370;2023-02-01T08:40:41;4.50;99.90
12885;DHT22;6510;51.362;7.370;2023-02-01T08:43:07;4.50;99.90
12885;DHT22;6510;51.362;7.370;2023-02-01T08:45:33;4.50;99.90
12885;DHT22;6510;51.362;7.370;2023-02-01T08:47:59;4.50;99.90
12885;DHT22;6510;51.362;7.370;2023-02-01T08:50:25;4.60;99.90
12885;DHT22;6510;51.362;7.370;2023-02-01T08:52:51;4.60;99.90
12885;DHT22;6510;51.362;7.370;2023-02-01T08:55:17;4.60;99.90
12885;DHT22;6510;51.362;7.370;2023-02-01T08:57:42;4.60;99.90
12885;DHT22;6510;51.362;7.370;2023-02-01T09:00:12;4.60;99.90
12885;DHT22;6510;51.362;7.370;2023-02-01T09:02:38;4.60;99.90
12885;DHT22;6510;51.362;7.370;2023-02-01T09:05:04;4.60;99.90
12885;DHT22;6510;51.362;7.370;2023-02-01T09:07:30;4.60;99.90
12885;DHT22;6510;51.362;7.370;2023-02-01T09:09:56;4.60;99.90
12885;DHT22;6510;51.362;7.370;2023-02-01T09:12:25;4.60;99.90
12885;DHT22;6510;51.362;7.370;2023-02-01T09:14:51;4.60;99.90
12885;DHT22;6510;51.362;7.370;2023-02-01T09:17:16;4.60;99.90
12885;DHT22;6510;51.362;7.370;2023-02-01T09:19:42;4.60;99.90
12885;DHT22;6510;51.362;7.370;2023-02-01T09:22:10;4.60;99.90
12885;DHT22;6510;51.362;7.370;2023-02-01T09:24:36;4.70;99.90
12885;DHT22;6510;51.362;7.370;2023-02-01T09:27:01;4.70;99.90
12885;DHT22;6510;51.362;7.370;2023-02-01T09:29:29;4.70;99.90
12885;DHT22;6510;51.362;7.370;2023-02-01T09:31:55;4.70;99.90
12885;DHT22;6510;51.362;7.370;2023-02-01T09:34:21;4.80;99.90
12885;DHT22;6510;51.362;7.370;2023-02-01T09:36:46;4.80;99.90
12885;DHT22;6510;51.362;7.370;2023-02-01T09:39:12;4.80;99.90
12885;DHT22;6510;51.362;7.370;2023-02-01T09:44:31;4.80;99.90
12885;DHT22;6510;51.362;7.370;2023-02-01T09:46:58;4.80;99.90
12885;DHT22;6510;51.362;7.370;2023-02-01T09:49:31;4.80;99.90
12885;DHT22;6510;51.362;7.370;2023-02-01T09:52:00;4.80;99.90
12885;DHT22;6510;51.362;7.370;2023-02-01T09:54:40;4.90;99.90
12885;DHT22;6510;51.362;7.370;2023-02-01T09:57:08;4.80;99.90
12885;DHT22;6510;51.362;7.370;2023-02-01T09:59:46;4.80;99.90
12885;DHT22;6510;51.362;7.370;2023-02-01T10:02:16;4.80;99.90
12885;DHT22;6510;51.362;7.370;2023-02-01T10:04:42;4.80;99.90
12885;DHT22;6510;51.362;7.370;2023-02-01T10:07:14;4.80;99.90
12885;DHT22;6510;51.362;7.370;2023-02-01T10:10:02;4.80;99.90
12885;DHT22;6510;51.362;7.370;2023-02-01T10:12:47;4.80;99.90
12885;DHT22;6510;51.362;7.370;2023-02-01T10:15:40;4.90;99.90
12885;DHT22;6510;51.362;7.370;2023-02-01T10:21:19;5.00;99.90
12885;DHT22;6510;51.362;7.370;2023-02-01T10:23:53;5.00;99.90
12885;DHT22;6510;51.362;7.370;2023-02-01T10:26:24;5.20;99.90
12885;DHT22;6510;51.362;7.370;2023-02-01T10:29:03;5.30;99.90
12885;DHT22;6510;51.362;7.370;2023-02-01T10:31:31;5.30;99.90
12885;DHT22;6510;51.362;7.370;2023-02-01T10:34:06;5.20;99.90
12885;DHT22;6510;51.362;7.370;2023-02-01T10:37:28;5.20;99.90
12885;DHT22;6510;51.362;7.370;2023-02-01T10:39:28;5.10;99.90
12885;DHT22;6510;51.362;7.370;2023-02-01T10:41:55;5.10;99.90
12885;DHT22;6510;51.362;7.370;2023-02-01T10:44:26;5.00;99.90
12885;DHT22;6510;51.362;7.370;2023-02-01T10:46:54;5.00;99.90
12885;DHT22;6510;51.362;7.370;2023-02-01T10:49:26;5.10;99.90
12885;DHT22;6510;51.362;7.370;2023-02-01T10:52:17;5.10;99.90
12885;DHT22;6510;51.362;7.370;2023-02-01T10:54:44;5.10;99.90
12885;DHT22;6510;51.362;7.370;2023-02-01T10:57:21;5.10;99.90
12885;DHT22;6510;51.362;7.370;2023-02-01T10:59:47;5.10;99.90
12885;DHT22;6510;51.362;7.370;2023-02-01T11:05:00;5.10;99.90
12885;DHT22;6510;51.362;7.370;2023-02-01T11:07:26;5.10;99.90
12885;DHT22;6510;51.362;7.370;2023-02-01T11:09:54;5.10;99.90
12885;DHT22;6510;51.362;7.370;2023-02-01T11:12:36;5.00;99.90
12885;DHT22;6510;51.362;7.370;2023-02-01T11:17:47;5.10;99.90
12885;DHT22;6510;51.362;7.370;2023-02-01T11:20:39;5.10;99.90
12885;DHT22;6510;51.362;7.370;2023-02-01T11:23:11;5.20;99.90
12885;DHT22;6510;51.362;7.370;2023-02-01T11:25:37;5.10;99.90
12885;DHT22;6510;51.362;7.370;2023-02-01T11:28:04;5.10;99.90
12885;DHT22;6510;51.362;7.370;2023-02-01T11:30:31;5.10;99.90
12885;DHT22;6510;51.362;7.370;2023-02-01T11:32:59;5.20;99.90
12885;DHT22;6510;51.362;7.370;2023-02-01T11:35:26;5.20;99.90
12885;DHT22;6510;51.362;7.370;2023-02-01T11:38:29;5.30;99.90
12885;DHT22;6510;51.362;7.370;2023-02-01T11:41:14;5.40;99.90
12885;DHT22;6510;51.362;7.370;2023-02-01T11:43:52;5.40;99.90
12885;DHT22;6510;51.362;7.370;2023-02-01T11:46:19;5.40;99.90
12885;DHT22;6510;51.362;7.370;2023-02-01T11:48:51;5.40;99.90
12885;DHT22;6510;51.362;7.370;2023-02-01T12:05:59;5.40;99.90
12885;DHT22;6510;51.362;7.370;2023-02-01T12:17:51;4.90;99.90
12885;DHT22;6510;51.362;7.370;2023-02-01T12:23:44;4.70;99.90
12885;DHT22;6510;51.362;7.370;2023-02-01T12:27:16;4.70;99.90
12885;DHT22;6510;51.362;7.370;2023-02-01T12:38:05;4.90;99.90
12885;DHT22;6510;51.362;7.370;2023-02-01T12:43:36;5.00;99.90
12885;DHT22;6510;51.362;7.370;2023-02-01T12:49:06;5.20;99.90
12885;DHT22;6510;51.362;7.370;2023-02-01T12:51:37;5.20;99.90
12885;DHT22;6510;51.362;7.370;2023-02-01T12:56:41;5.20;99.90
12885;DHT22;6510;51.362;7.370;2023-02-01T12:59:21;5.10;99.90
12885;DHT22;6510;51.362;7.370;2023-02-01T13:02:40;5.10;99.90
12885;DHT22;6510;51.362;7.370;2023-02-01T13:07:41;5.10;99.90
12885;DHT22;6510;51.362;7.370;2023-02-01T13:15:49;5.10;99.90
12885;DHT22;6510;51.362;7.370;2023-02-01T13:18:19;5.00;99.90
12885;DHT22;6510;51.362;7.370;2023-02-01T13:21:20;5.00;99.90
12885;DHT22;6510;51.362;7.370;2023-02-01T13:23:48;4.90;99.90
12885;DHT22;6510;51.362;7.370;2023-02-01T13:26:14;4.80;99.90
12885;DHT22;6510;51.362;7.370;2023-02-01T13:39:32;4.60;99.90
12885;DHT22;6510;51.362;7.370;2023-02-01T13:42:15;4.70;99.90
12885;DHT22;6510;51.362;7.370;2023-02-01T13:44:56;4.60;99.90
12885;DHT22;6510;51.362;7.370;2023-02-01T13:49:55;4.60;99.90
12885;DHT22;6510;51.362;7.370;2023-02-01T13:52:43;4.60;99.90
12885;DHT22;6510;51.362;7.370;2023-02-01T14:00:38;4.70;99.90
12885;DHT22;6510;51.362;7.370;2023-02-01T14:03:18;4.70;99.90
12885;DHT22;6510;51.362;7.370;2023-02-01T14:08:15;4.80;99.90
12885;DHT22;6510;51.362;7.370;2023-02-01T14:10:55;4.90;99.90
12885;DHT22;6510;51.362;7.370;2023-02-01T14:23:46;5.00;99.90
12885;DHT22;6510;51.362;7.370;2023-02-01T14:26:18;4.90;99.90
12885;DHT22;6510;51.362;7.370;2023-02-01T14:28:57;4.90;99.90
12885;DHT22;6510;51.362;7.370;2023-02-01T14:31:34;5.00;99.90
12885;DHT22;6510;51.362;7.370;2023-02-01T14:34:08;5.00;99.90
12885;DHT22;6510;51.362;7.370;2023-02-01T14:36:46;5.00;99.90
12885;DHT22;6510;51.362;7.370;2023-02-01T14:39:35;5.10;99.90
12885;DHT22;6510;51.362;7.370;2023-02-01T14:42:05;5.10;99.90
12885;DHT22;6510;51.362;7.370;2023-02-01T14:44:39;5.00;99.90
12885;DHT22;6510;51.362;7.370;2023-02-01T14:47:09;5.00;99.90
12885;DHT22;6510;51.362;7.370;2023-02-01T14:52:20;5.00;99.90
12885;DHT22;6510;51.362;7.370;2023-02-01T14:54:52;5.00;99.90
12885;DHT22;6510;51.362;7.370;2023-02-01T14:57:20;5.00;99.90
12885;DHT22;6510;51.362;7.370;2023-02-01T14:59:49;5.10;99.90
12885;DHT22;6510;51.362;7.370;2023-02-01T15:02:25;5.10;99.90
12885;DHT22;6510;51.362;7.370;2023-02-01T15:04:56;5.20;99.90
12885;DHT22;6510;51.362;7.370;2023-02-01T15:07:24;5.30;99.90
12885;DHT22;6510;51.362;7.370;2023-02-01T15:09:51;5.20;99.90
12885;DHT22;6510;51.362;7.370;2023-02-01T15:12:23;5.20;99.90
12885;DHT22;6510;51.362;7.370;2023-02-01T15:15:16;5.20;99.90
12885;DHT22;6510;51.362;7.370;2023-02-01T15:17:59;5.30;99.90
12885;DHT22;6510;51.362;7.370;2023-02-01T15:20:31;5.30;99.90
12885;DHT22;6510;51.362;7.370;2023-02-01T15:23:00;5.40;99.90
12885;DHT22;6510;51.362;7.370;2023-02-01T15:25:28;5.50;99.90
12885;DHT22;6510;51.362;7.370;2023-02-01T15:27:55;5.40;99.90
12885;DHT22;6510;51.362;7.370;2023-02-01T15:30:27;5.40;99.90
12885;DHT22;6510;51.362;7.370;2023-02-01T15:33:06;5.40;99.90
12885;DHT22;6510;51.362;7.370;2023-02-01T15:46:06;5.60;99.90
12885;DHT22;6510;51.362;7.370;2023-02-01T15:48:45;5.50;99.90
12885;DHT22;6510;51.362;7.370;2023-02-01T15:51:13;5.50;99.90
12885;DHT22;6510;51.362;7.370;2023-02-01T15:53:44;5.60;99.90
12885;DHT22;6510;51.362;7.370;2023-02-01T15:56:11;5.50;99.90
12885;DHT22;6510;51.362;7.370;2023-02-01T15:58:41;5.60;99.90
12885;DHT22;6510;51.362;7.370;2023-02-01T16:01:11;5.60;99.90
12885;DHT22;6510;51.362;7.370;2023-02-01T16:03:41;5.60;99.90
12885;DHT22;6510;51.362;7.370;2023-02-01T16:06:28;5.60;99.90
12885;DHT22;6510;51.362;7.370;2023-02-01T16:11:32;5.70;99.90
12885;DHT22;6510;51.362;7.370;2023-02-01T16:14:05;5.70;99.90
12885;DHT22;6510;51.362;7.370;2023-02-01T16:16:30;5.70;99.90
12885;DHT22;6510;51.362;7.370;2023-02-01T16:18:56;5.70;99.90
12885;DHT22;6510;51.362;7.370;2023-02-01T16:21:22;5.70;99.90
12885;DHT22;6510;51.362;7.370;2023-02-01T16:23:49;5.70;99.90
12885;DHT22;6510;51.362;7.370;2023-02-01T16:26:16;5.70;99.90
12885;DHT22;6510;51.362;7.370;2023-02-01T16:28:41;5.70;99.90
12885;DHT22;6510;51.362;7.370;2023-02-01T16:31:15;5.60;99.90
12885;DHT22;6510;51.362;7.370;2023-02-01T16:33:53;5.60;99.90
12885;DHT22;6510;51.362;7.370;2023-02-01T16:36:20;5.60;99.90
12885;DHT22;6510;51.362;7.370;2023-02-01T16:38:46;5.60;99.90
12885;DHT22;6510;51.362;7.370;2023-02-01T16:41:14;5.60;99.90
12885;DHT22;6510;51.362;7.370;2023-02-01T16:43:40;5.70;99.90
12885;DHT22;6510;51.362;7.370;2023-02-01T16:46:13;5.60;99.90
12885;DHT22;6510;51.362;7.370;2023-02-01T16:48:40;5.40;99.90
12885;DHT22;6510;51.362;7.370;2023-02-01T16:51:14;5.30;99.90
12885;DHT22;6510;51.362;7.370;2023-02-01T16:53:44;5.00;99.90
12885;DHT22;6510;51.362;7.370;2023-02-01T16:56:17;4.90;99.90
12885;DHT22;6510;51.362;7.370;2023-02-01T16:58:43;4.90;99.90
12885;DHT22;6510;51.362;7.370;2023-02-01T17:01:11;4.90;99.90
12885;DHT22;6510;51.362;7.370;2023-02-01T17:03:37;4.80;99.90
12885;DHT22;6510;51.362;7.370;2023-02-01T17:06:03;4.90;99.90
12885;DHT22;6510;51.362;7.370;2023-02-01T17:08:34;5.00;99.90
12885;DHT22;6510;51.362;7.370;2023-02-01T17:11:02;5.00;99.90
12885;DHT22;6510;51.362;7.370;2023-02-01T17:13:28;5.00;99.90
12885;DHT22;6510;51.362;7.370;2023-02-01T17:16:00;5.00;99.90
12885;DHT22;6510;51.362;7.370;2023-02-01T17:18:28;5.10;99.90
12885;DHT22;6510;51.362;7.370;2023-02-01T17:20:58;5.30;99.90
12885;DHT22;6510;51.362;7.370;2023-02-01T17:23:24;5.30;99.90
12885;DHT22;6510;51.362;7.370;2023-02-01T17:25:51;5.50;99.90
12885;DHT22;6510;51.362;7.370;2023-02-01T17:28:16;5.50;99.90
12885;DHT22;6510;51.362;7.370;2023-02-01T17:30:42;5.50;99.90
12885;DHT22;6510;51.362;7.370;2023-02-01T17:33:25;5.40;99.90
12885;DHT22;6510;51.362;7.370;2023-02-01T17:35:55;5.50;99.90
12885;DHT22;6510;51.362;7.370;2023-02-01T17:38:24;5.40;99.90
12885;DHT22;6510;51.362;7.370;2023-02-01T17:40:50;5.40;99.90
12885;DHT22;6510;51.362;7.370;2023-02-01T17:43:24;5.50;99.90
12885;DHT22;6510;51.362;7.370;2023-02-01T17:45:57;5.50;99.90
12885;DHT22;6510;51.362;7.370;2023-02-01T17:48:23;5.50;99.90
12885;DHT22;6510;51.362;7.370;2023-02-01T17:50:50;5.50;99.90
12885;DHT22;6510;51.362;7.370;2023-02-01T17:53:24;5.60;99.90
12885;DHT22;6510;51.362;7.370;2023-02-01T17:55:50;5.60;99.90
12885;DHT22;6510;51.362;7.370;2023-02-01T17:58:16;5.60;99.90
12885;DHT22;6510;51.362;7.370;2023-02-01T18:00:43;5.60;99.90
12885;DHT22;6510;51.362;7.370;2023-02-01T18:03:30;5.60;99.90
12885;DHT22;6510;51.362;7.370;2023-02-01T18:06:00;5.60;99.90
12885;DHT22;6510;51.362;7.370;2023-02-01T18:08:28;5.60;99.90
12885;DHT22;6510;51.362;7.370;2023-02-01T18:10:56;5.60;99.90
12885;DHT22;6510;51.362;7.370;2023-02-01T18:13:30;5.60;99.90
12885;DHT22;6510;51.362;7.370;2023-02-01T18:15:56;5.60;99.90
12885;DHT22;6510;51.362;7.370;2023-02-01T18:18:24;5.60;99.90
12885;DHT22;6510;51.362;7.370;2023-02-01T18:20:50;5.60;99.90
12885;DHT22;6510;51.362;7.370;2023-02-01T18:23:21;5.60;99.90
12885;DHT22;6510;51.362;7.370;2023-02-01T18:25:50;5.70;99.90
12885;DHT22;6510;51.362;7.370;2023-02-01T18:28:18;5.70;99.90
12885;DHT22;6510;51.362;7.370;2023-02-01T18:30:46;5.60;99.90
12885;DHT22;6510;51.362;7.370;2023-02-01T18:33:14;5.60;99.90
12885;DHT22;6510;51.362;7.370;2023-02-01T18:35:40;5.60;99.90
12885;DHT22;6510;51.362;7.370;2023-02-01T18:38:06;5.60;99.90